createdAt,value
2022-11-29T00:00:50.181Z,5.28
2022-11-29T00:01:53.080Z,4.15
2022-11-29T00:02:56.155Z,4.00
2022-11-29T00:03:59.624Z,4.60
2022-11-29T00:05:02.394Z,4.55
2022-11-29T00:06:11.310Z,4.65
2022-11-29T00:07:28.019Z,3.67
2022-11-29T00:08:30.781Z,3.80
2022-11-29T00:09:34.167Z,4.32
2022-11-29T00:10:38.336Z,5.25
2022-11-29T00:12:01.220Z,5.00
2022-11-29T00:13:04.702Z,4.70
2022-11-29T00:14:14.391Z,5.38
2022-11-29T00:15:17.315Z,4.72
2022-11-29T00:16:20.237Z,6.10
2022-11-29T00:17:23.060Z,4.93
2022-11-29T00:18:25.728Z,5.68
2022-11-29T00:19:29.410Z,4.45
2022-11-29T00:20:33.938Z,3.80
2022-11-29T00:21:36.707Z,4.38
2022-11-29T00:22:39.686Z,5.20
2022-11-29T00:23:42.570Z,4.50
2022-11-29T00:24:45.823Z,4.57
2022-11-29T00:25:48.818Z,5.28
2022-11-29T00:26:51.795Z,5.15
2022-11-29T00:27:54.884Z,5.03
2022-11-29T00:28:57.613Z,5.00
2022-11-29T00:30:00.415Z,4.63
2022-11-29T00:31:25.821Z,4.03
2022-11-29T00:32:28.795Z,4.95
2022-11-29T00:33:31.668Z,4.22
2022-11-29T00:34:36.332Z,3.90
2022-11-29T00:35:38.959Z,5.13
2022-11-29T00:36:41.724Z,4.85
2022-11-29T00:37:44.804Z,4.97
2022-11-29T00:38:49.414Z,4.72
2022-11-29T00:39:58.173Z,5.20
2022-11-29T00:41:01.106Z,4.72
2022-11-29T00:42:03.979Z,5.53
2022-11-29T00:43:11.046Z,5.50
2022-11-29T00:44:19.604Z,5.03
2022-11-29T00:45:22.948Z,6.22
2022-11-29T00:46:25.861Z,4.90
2022-11-29T00:47:28.692Z,5.15
2022-11-29T00:48:32.078Z,6.00
2022-11-29T00:49:35.159Z,5.38
2022-11-29T00:50:38.033Z,4.28
2022-11-29T00:51:40.906Z,5.30
2022-11-29T00:52:43.885Z,5.03
2022-11-29T00:53:46.862Z,6.22
2022-11-29T00:54:49.694Z,5.45
2022-11-29T00:55:53.019Z,4.82
2022-11-29T00:56:55.994Z,4.53
2022-11-29T00:57:58.831Z,5.53
2022-11-29T00:59:19.033Z,5.22
2022-11-29T01:00:23.883Z,5.32
2022-11-29T01:01:26.985Z,4.85
2022-11-29T01:02:29.956Z,5.57
2022-11-29T01:03:32.900Z,4.80
2022-11-29T01:04:36.286Z,4.60
2022-11-29T01:05:40.752Z,5.28
2022-11-29T01:06:43.671Z,4.88
2022-11-29T01:07:46.380Z,3.95
2022-11-29T01:08:50.135Z,4.05
2022-11-29T01:09:53.112Z,5.25
2022-11-29T01:11:19.027Z,6.10
2022-11-29T01:12:21.765Z,4.65
2022-11-29T01:13:24.572Z,5.00
2022-11-29T01:14:27.241Z,5.05
2022-11-29T01:15:30.627Z,4.88
2022-11-29T01:16:34.062Z,5.57
2022-11-29T01:17:40.772Z,5.35
2022-11-29T01:18:44.267Z,5.03
2022-11-29T01:19:50.795Z,5.18
2022-11-29T01:21:18.951Z,4.93
2022-11-29T01:22:21.868Z,4.45
2022-11-29T01:23:24.948Z,5.05
2022-11-29T01:24:29.048Z,4.68
2022-11-29T01:25:32.438Z,4.88
2022-11-29T01:26:35.309Z,4.63
2022-11-29T01:27:38.188Z,4.07
2022-11-29T01:28:42.390Z,4.80
2022-11-29T01:29:45.245Z,4.65
2022-11-29T01:30:48.226Z,5.45
2022-11-29T01:31:51.217Z,5.10
2022-11-29T01:32:54.294Z,4.28
2022-11-29T01:33:58.912Z,6.47
2022-11-29T01:35:01.951Z,4.55
2022-11-29T01:36:06.091Z,4.05
2022-11-29T01:37:08.965Z,6.00
2022-11-29T01:38:11.838Z,4.72
2022-11-29T01:39:14.774Z,6.78
2022-11-29T01:40:17.484Z,4.50
2022-11-29T01:41:26.503Z,5.25
2022-11-29T01:42:29.380Z,4.07
2022-11-29T01:43:34.348Z,5.00
2022-11-29T01:44:37.072Z,4.90
2022-11-29T01:45:40.194Z,5.07
2022-11-29T01:46:46.578Z,5.57
2022-11-29T01:47:53.067Z,5.93
2022-11-29T01:49:02.289Z,5.18
2022-11-29T01:50:06.083Z,5.00
2022-11-29T01:51:08.958Z,5.38
2022-11-29T01:52:25.861Z,4.70
2022-11-29T01:53:29.309Z,4.35
2022-11-29T01:54:34.782Z,4.55
2022-11-29T01:55:43.196Z,5.18
2022-11-29T01:56:51.145Z,4.97
2022-11-29T01:57:53.767Z,4.20
2022-11-29T01:58:56.724Z,5.15
2022-11-29T02:00:14.676Z,4.68
2022-11-29T02:01:19.630Z,4.93
2022-11-29T02:02:40.596Z,5.38
2022-11-29T02:03:43.548Z,5.30
2022-11-29T02:04:47.959Z,5.68
2022-11-29T02:05:52.266Z,4.82
2022-11-29T02:06:55.037Z,4.95
2022-11-29T02:07:59.678Z,5.22
2022-11-29T02:09:03.556Z,5.93
2022-11-29T02:10:08.270Z,4.65
2022-11-29T02:11:35.412Z,5.15
2022-11-29T02:12:44.435Z,5.43
2022-11-29T02:14:03.997Z,4.97
2022-11-29T02:15:07.479Z,4.95
2022-11-29T02:16:25.629Z,4.88
2022-11-29T02:17:42.518Z,5.68
2022-11-29T02:19:09.560Z,5.10
2022-11-29T02:20:33.836Z,4.30
2022-11-29T02:21:51.659Z,4.85
2022-11-29T02:23:30.380Z,5.55
2022-11-29T02:24:59.257Z,6.05
2022-11-29T02:26:28.551Z,4.18
2022-11-29T02:27:50.984Z,6.03
2022-11-29T02:29:08.705Z,5.32
2022-11-29T02:30:33.419Z,5.47
2022-11-29T02:31:54.392Z,5.43
2022-11-29T02:33:34.334Z,5.97
2022-11-29T02:35:10.589Z,5.03
2022-11-29T02:36:34.765Z,4.80
2022-11-29T02:38:19.110Z,5.47
2022-11-29T02:39:56.287Z,6.05
2022-11-29T02:40:58.868Z,4.40
2022-11-29T02:42:20.244Z,5.78
2022-11-29T02:43:51.301Z,5.85
2022-11-29T02:45:36.148Z,5.30
2022-11-29T02:47:09.751Z,5.40
2022-11-29T02:48:39.934Z,4.72
2022-11-29T02:50:03.523Z,5.60
2022-11-29T02:51:15.203Z,5.68
2022-11-29T02:52:37.946Z,4.97
2022-11-29T02:54:09.899Z,5.28
2022-11-29T02:55:49.480Z,5.90
2022-11-29T02:57:12.173Z,6.07
2022-11-29T02:58:28.974Z,6.38
2022-11-29T02:59:45.974Z,5.05
2022-11-29T03:01:07.968Z,5.82
2022-11-29T03:02:28.923Z,5.35
2022-11-29T03:03:52.459Z,6.47
2022-11-29T03:05:41.210Z,5.13
2022-11-29T03:07:13.727Z,5.30
2022-11-29T03:08:42.111Z,5.22
2022-11-29T03:09:46.554Z,5.82
2022-11-29T03:11:05.242Z,5.63
2022-11-29T03:12:39.996Z,5.55
2022-11-29T03:13:51.986Z,5.70
2022-11-29T03:15:00.521Z,8.18
2022-11-29T03:16:24.965Z,5.07
2022-11-29T03:17:51.898Z,7.13
2022-11-29T03:19:24.104Z,4.97
2022-11-29T03:20:55.097Z,5.15
2022-11-29T03:22:12.437Z,5.13
2022-11-29T03:23:21.060Z,6.25
2022-11-29T03:24:37.120Z,4.65
2022-11-29T03:26:05.002Z,6.45
2022-11-29T03:27:18.189Z,7.32
2022-11-29T03:28:37.793Z,5.57
2022-11-29T03:29:58.857Z,6.00
2022-11-29T03:31:24.716Z,5.60
2022-11-29T03:32:52.453Z,5.60
2022-11-29T03:34:09.562Z,5.55
2022-11-29T03:35:17.471Z,6.68
2022-11-29T03:36:51.662Z,5.93
2022-11-29T03:38:27.739Z,5.38
2022-11-29T03:39:45.156Z,5.75
2022-11-29T03:40:53.586Z,7.32
2022-11-29T03:42:02.511Z,7.82
2022-11-29T03:43:11.360Z,6.78
2022-11-29T03:44:19.235Z,6.00
2022-11-29T03:45:25.729Z,6.22
2022-11-29T03:46:37.746Z,5.93
2022-11-29T03:47:50.187Z,4.57
2022-11-29T03:49:00.820Z,6.53
2022-11-29T03:50:13.559Z,5.90
2022-11-29T03:51:29.557Z,5.85
2022-11-29T03:53:10.629Z,6.20
2022-11-29T03:54:32.844Z,6.10
2022-11-29T03:56:00.128Z,5.78
2022-11-29T03:57:03.015Z,5.00
2022-11-29T03:59:02.031Z,5.32
2022-11-29T04:00:11.031Z,5.68
2022-11-29T04:01:34.073Z,7.32
2022-11-29T04:02:54.666Z,7.97
2022-11-29T04:04:36.912Z,7.97
2022-11-29T04:06:07.211Z,7.63
2022-11-29T04:07:25.507Z,6.95
2022-11-29T04:09:21.698Z,7.60
2022-11-29T04:11:00.188Z,7.70
2022-11-29T04:12:20.982Z,6.80
2022-11-29T04:13:35.890Z,7.78
2022-11-29T04:14:47.436Z,6.80
2022-11-29T04:16:19.851Z,8.18
2022-11-29T04:18:00.747Z,7.20
2022-11-29T04:19:12.055Z,9.05
2022-11-29T04:20:32.846Z,7.10
2022-11-29T04:22:15.526Z,8.32
2022-11-29T04:23:39.286Z,7.00
2022-11-29T04:25:06.018Z,7.65
2022-11-29T04:26:11.666Z,6.97
2022-11-29T04:27:31.430Z,6.93
2022-11-29T04:29:09.531Z,8.13
2022-11-29T04:30:26.328Z,6.80
2022-11-29T04:31:38.030Z,7.93
2022-11-29T04:32:58.435Z,7.60
2022-11-29T04:34:01.368Z,7.82
2022-11-29T04:35:30.560Z,7.20
2022-11-29T04:36:51.969Z,8.20
2022-11-29T04:38:26.459Z,8.77
2022-11-29T04:39:53.454Z,5.97
2022-11-29T04:41:10.765Z,8.00
2022-11-29T04:42:32.349Z,6.15
2022-11-29T04:44:00.894Z,7.70
2022-11-29T04:45:24.688Z,6.90
2022-11-29T04:46:49.019Z,7.75
2022-11-29T04:48:41.094Z,6.70
2022-11-29T04:49:43.976Z,6.65
2022-11-29T04:51:27.599Z,7.78
2022-11-29T04:52:42.451Z,6.72
2022-11-29T04:54:09.559Z,6.72
2022-11-29T04:55:30.856Z,7.75
2022-11-29T04:57:08.701Z,8.60
2022-11-29T04:58:31.024Z,7.03
2022-11-29T05:00:10.317Z,9.18
2022-11-29T05:01:37.446Z,7.05
2022-11-29T05:02:43.959Z,6.88
2022-11-29T05:04:14.069Z,6.53
2022-11-29T05:05:50.427Z,8.02
2022-11-29T05:07:17.831Z,7.32
2022-11-29T05:08:31.201Z,7.93
2022-11-29T05:10:16.092Z,7.32
2022-11-29T05:11:28.143Z,6.13
2022-11-29T05:13:00.303Z,7.25
2022-11-29T05:14:30.348Z,7.07
2022-11-29T05:15:49.392Z,6.63
2022-11-29T05:17:04.737Z,6.25
2022-11-29T05:18:21.133Z,7.88
2022-11-29T05:20:01.373Z,7.05
2022-11-29T05:22:20.088Z,7.55
2022-11-29T05:23:48.705Z,7.00
2022-11-29T05:25:24.662Z,7.57
2022-11-29T05:26:27.528Z,6.13
2022-11-29T05:27:43.685Z,5.82
2022-11-29T05:29:37.485Z,6.05
2022-11-29T05:31:13.541Z,7.05
2022-11-29T05:32:34.176Z,5.32
2022-11-29T05:34:02.502Z,7.13
2022-11-29T05:35:17.350Z,6.20
2022-11-29T05:37:07.644Z,6.90
2022-11-29T05:38:34.984Z,5.88
2022-11-29T05:40:22.500Z,6.35
2022-11-29T05:41:40.490Z,6.55
2022-11-29T05:43:03.069Z,5.60
2022-11-29T05:44:37.953Z,5.72
2022-11-29T05:45:46.501Z,6.93
2022-11-29T05:47:00.012Z,6.55
2022-11-29T05:48:25.265Z,4.75
2022-11-29T05:49:49.191Z,5.80
2022-11-29T05:51:23.503Z,5.47
2022-11-29T05:52:38.390Z,5.15
2022-11-29T05:54:13.605Z,5.78
2022-11-29T05:55:52.279Z,4.55
2022-11-29T05:57:22.034Z,5.57
2022-11-29T05:58:45.567Z,5.40
2022-11-29T05:59:51.436Z,5.05
2022-11-29T06:01:18.758Z,6.50
2022-11-29T06:02:27.316Z,6.78
2022-11-29T06:03:51.727Z,5.45
2022-11-29T06:05:09.158Z,4.68
2022-11-29T06:06:24.322Z,5.28
2022-11-29T06:07:42.131Z,6.35
2022-11-29T06:09:18.623Z,5.50
2022-11-29T06:10:28.635Z,4.75
2022-11-29T06:11:36.541Z,6.38
2022-11-29T06:12:39.771Z,5.85
2022-11-29T06:14:00.972Z,5.47
2022-11-29T06:15:34.535Z,5.68
2022-11-29T06:16:52.069Z,4.30
2022-11-29T06:18:30.176Z,5.53
2022-11-29T06:20:10.382Z,5.00
2022-11-29T06:21:40.712Z,5.53
2022-11-29T06:23:08.153Z,4.47
2022-11-29T06:24:42.593Z,6.28
2022-11-29T06:25:51.520Z,4.97
2022-11-29T06:27:15.351Z,5.22
2022-11-29T06:28:47.029Z,4.03
2022-11-29T06:30:08.205Z,4.80
2022-11-29T06:31:27.643Z,5.07
2022-11-29T06:32:44.474Z,4.13
2022-11-29T06:34:05.981Z,3.92
2022-11-29T06:35:36.164Z,4.95
2022-11-29T06:36:56.477Z,4.38
2022-11-29T06:38:22.408Z,4.07
2022-11-29T06:39:25.468Z,4.20
2022-11-29T06:40:28.342Z,4.30
2022-11-29T06:41:31.484Z,4.10
2022-11-29T06:42:34.191Z,4.38
2022-11-29T06:43:37.476Z,5.25
2022-11-29T06:44:40.557Z,4.63
2022-11-29T06:45:50.599Z,5.30
2022-11-29T06:47:04.459Z,5.15
2022-11-29T06:48:10.208Z,4.80
2022-11-29T06:49:29.525Z,4.07
2022-11-29T06:50:41.228Z,4.90
2022-11-29T06:52:21.052Z,4.10
2022-11-29T06:53:35.497Z,4.82
2022-11-29T06:54:49.637Z,4.28
2022-11-29T06:56:16.352Z,4.53
2022-11-29T06:57:34.808Z,3.97
2022-11-29T06:59:04.440Z,4.03
2022-11-29T07:00:39.474Z,4.68
2022-11-29T07:01:51.159Z,4.60
2022-11-29T07:02:57.572Z,3.70
2022-11-29T07:04:17.040Z,4.10
2022-11-29T07:05:38.547Z,5.25
2022-11-29T07:06:41.630Z,5.43
2022-11-29T07:07:44.643Z,4.38
2022-11-29T07:09:24.201Z,4.30
2022-11-29T07:10:30.699Z,3.80
2022-11-29T07:11:33.880Z,3.75
2022-11-29T07:12:36.856Z,4.10
2022-11-29T07:13:40.037Z,3.90
2022-11-29T07:14:43.937Z,3.58
2022-11-29T07:16:07.964Z,4.30
2022-11-29T07:17:35.565Z,3.40
2022-11-29T07:19:13.840Z,3.78
2022-11-29T07:20:28.224Z,3.42
2022-11-29T07:21:56.210Z,3.88
2022-11-29T07:23:01.898Z,4.13
2022-11-29T07:24:46.751Z,3.70
2022-11-29T07:26:15.861Z,4.03
2022-11-29T07:27:28.154Z,3.13
2022-11-29T07:28:41.165Z,4.32
2022-11-29T07:30:03.111Z,3.38
2022-11-29T07:31:10.039Z,3.55
2022-11-29T07:32:24.157Z,3.75
2022-11-29T07:33:35.433Z,4.53
2022-11-29T07:34:47.219Z,4.20
2022-11-29T07:35:56.265Z,4.03
2022-11-29T07:37:11.365Z,3.25
2022-11-29T07:38:55.336Z,3.90
2022-11-29T07:40:19.437Z,3.72
2022-11-29T07:41:35.622Z,3.60
2022-11-29T07:43:13.400Z,3.60
2022-11-29T07:44:27.248Z,3.42
2022-11-29T07:45:38.312Z,3.95
2022-11-29T07:46:41.321Z,4.10
2022-11-29T07:47:44.381Z,3.58
2022-11-29T07:48:47.090Z,3.95
2022-11-29T07:49:49.911Z,2.92
2022-11-29T07:50:53.109Z,3.35
2022-11-29T07:51:56.287Z,3.75
2022-11-29T07:52:59.928Z,3.17
2022-11-29T07:54:03.002Z,4.03
2022-11-29T07:55:07.669Z,3.08
2022-11-29T07:56:10.737Z,3.50
2022-11-29T07:57:13.420Z,3.13
2022-11-29T07:58:18.283Z,4.55
2022-11-29T07:59:21.384Z,3.42
2022-11-29T08:00:24.404Z,3.35
2022-11-29T08:01:27.072Z,3.55
2022-11-29T08:02:35.885Z,3.55
2022-11-29T08:03:38.799Z,3.40
2022-11-29T08:04:44.697Z,3.10
2022-11-29T08:05:48.177Z,3.05
2022-11-29T08:06:50.924Z,3.15
2022-11-29T08:07:54.802Z,3.30
2022-11-29T08:08:58.949Z,3.13
2022-11-29T08:10:02.336Z,3.58
2022-11-29T08:11:13.139Z,2.90
2022-11-29T08:12:15.847Z,3.03
2022-11-29T08:13:21.094Z,2.92
2022-11-29T08:14:24.935Z,3.35
2022-11-29T08:15:27.683Z,3.15
2022-11-29T08:16:30.569Z,3.33
2022-11-29T08:17:33.487Z,3.20
2022-11-29T08:18:38.701Z,3.30
2022-11-29T08:19:41.379Z,3.97
2022-11-29T08:20:44.146Z,2.83
2022-11-29T08:21:48.491Z,2.90
2022-11-29T08:23:00.481Z,4.55
2022-11-29T08:24:03.173Z,3.53
2022-11-29T08:25:07.422Z,3.05
2022-11-29T08:26:10.340Z,2.95
2022-11-29T08:27:13.102Z,3.13
2022-11-29T08:28:15.772Z,2.65
2022-11-29T08:29:18.717Z,2.60
2022-11-29T08:30:25.304Z,3.38
2022-11-29T08:31:27.919Z,2.75
2022-11-29T08:32:30.813Z,3.05
2022-11-29T08:33:36.823Z,2.85
2022-11-29T08:34:41.531Z,3.67
2022-11-29T08:35:45.315Z,3.10
2022-11-29T08:36:47.993Z,2.80
2022-11-29T08:37:51.540Z,2.65
2022-11-29T08:39:02.236Z,2.25
2022-11-29T08:40:09.213Z,3.95
2022-11-29T08:41:14.374Z,3.08
2022-11-29T08:42:17.074Z,2.80
2022-11-29T08:43:19.965Z,2.65
2022-11-29T08:44:22.584Z,2.95
2022-11-29T08:45:28.461Z,3.40
2022-11-29T08:46:50.403Z,2.60
2022-11-29T08:47:53.590Z,3.33
2022-11-29T08:48:56.372Z,3.15
2022-11-29T08:50:01.916Z,3.00
2022-11-29T08:51:06.366Z,2.50
2022-11-29T08:52:27.340Z,3.83
2022-11-29T08:53:42.077Z,3.22
2022-11-29T08:54:45.450Z,3.10
2022-11-29T08:55:48.418Z,3.03
2022-11-29T08:57:38.017Z,3.08
2022-11-29T08:58:15.383Z,2.22
2022-11-29T08:59:19.157Z,2.60
2022-11-29T09:00:22.046Z,3.42
2022-11-29T09:01:25.028Z,2.88
2022-11-29T09:02:27.994Z,3.00
2022-11-29T09:03:51.299Z,2.72
2022-11-29T09:04:54.017Z,2.80
2022-11-29T09:05:57.791Z,2.70
2022-11-29T09:07:00.370Z,3.38
2022-11-29T09:08:03.002Z,2.42
2022-11-29T09:09:06.081Z,3.20
2022-11-29T09:10:09.743Z,2.72
2022-11-29T09:11:17.965Z,2.88
2022-11-29T09:12:20.760Z,3.22
2022-11-29T09:13:25.807Z,3.33
2022-11-29T09:14:29.145Z,2.47
2022-11-29T09:15:31.967Z,2.80
2022-11-29T09:16:37.167Z,4.10
2022-11-29T09:17:39.994Z,2.28
2022-11-29T09:18:44.878Z,2.67
2022-11-29T09:19:51.349Z,2.75
2022-11-29T09:20:54.383Z,3.15
2022-11-29T09:21:57.257Z,2.35
2022-11-29T09:23:00.649Z,3.17
2022-11-29T09:24:06.778Z,2.80
2022-11-29T09:25:09.551Z,2.67
2022-11-29T09:26:18.777Z,2.90
2022-11-29T09:27:21.588Z,2.70
2022-11-29T09:28:24.158Z,3.17
2022-11-29T09:29:26.872Z,2.85
2022-11-29T09:30:31.819Z,3.28
2022-11-29T09:31:35.464Z,3.53
2022-11-29T09:32:38.208Z,2.30
2022-11-29T09:33:41.198Z,2.40
2022-11-29T09:34:44.197Z,2.92
2022-11-29T09:35:47.903Z,2.88
2022-11-29T09:36:50.790Z,2.95
2022-11-29T09:37:53.635Z,3.20
2022-11-29T09:38:56.998Z,2.65
2022-11-29T09:39:59.914Z,2.40
2022-11-29T09:41:27.982Z,2.75
2022-11-29T09:42:44.533Z,2.22
2022-11-29T09:44:02.640Z,2.78
2022-11-29T09:45:14.997Z,2.80
2022-11-29T09:46:23.808Z,2.70
2022-11-29T09:47:35.268Z,3.85
2022-11-29T09:48:47.155Z,2.42
2022-11-29T09:50:16.258Z,3.13
2022-11-29T09:51:47.717Z,4.05
2022-11-29T09:53:05.908Z,2.70
2022-11-29T09:54:17.372Z,2.78
2022-11-29T09:55:43.400Z,2.92
2022-11-29T09:56:50.123Z,3.13
2022-11-29T09:57:54.405Z,3.15
2022-11-29T09:59:05.519Z,2.67
2022-11-29T10:00:16.986Z,2.70
2022-11-29T10:01:27.427Z,3.05
2022-11-29T10:02:48.093Z,3.22
2022-11-29T10:03:54.760Z,2.35
2022-11-29T10:05:03.285Z,2.67
2022-11-29T10:06:20.827Z,3.53
2022-11-29T10:07:34.135Z,3.05
2022-11-29T10:08:42.216Z,2.83
2022-11-29T10:09:52.495Z,2.50
2022-11-29T10:11:11.882Z,3.25
2022-11-29T10:13:35.202Z,3.15
2022-11-29T10:15:14.348Z,3.78
2022-11-29T10:16:23.114Z,3.15
2022-11-29T10:17:37.668Z,3.60
2022-11-29T10:18:52.879Z,2.40
2022-11-29T10:20:10.252Z,3.28
2022-11-29T10:21:24.642Z,3.03
2022-11-29T10:22:59.662Z,2.83
2022-11-29T10:24:07.455Z,2.55
2022-11-29T10:25:19.299Z,3.17
2022-11-29T10:26:23.338Z,3.15
2022-11-29T10:27:29.752Z,2.78
2022-11-29T10:28:35.113Z,3.08
2022-11-29T10:29:38.925Z,2.75
2022-11-29T10:30:43.455Z,4.10
2022-11-29T10:31:49.716Z,3.60
2022-11-29T10:32:58.118Z,2.88
2022-11-29T10:34:08.238Z,3.53
2022-11-29T10:35:20.028Z,3.00
2022-11-29T10:36:34.262Z,3.42
2022-11-29T10:37:37.022Z,3.85
2022-11-29T10:38:39.804Z,2.83
2022-11-29T10:40:00.189Z,2.40
2022-11-29T10:41:10.440Z,3.03
2022-11-29T10:42:40.079Z,3.10
2022-11-29T10:43:43.424Z,3.55
2022-11-29T10:44:46.431Z,3.08
2022-11-29T10:45:56.192Z,3.65
2022-11-29T10:47:05.434Z,3.20
2022-11-29T10:48:19.804Z,3.03
2022-11-29T10:49:27.490Z,2.92
2022-11-29T10:50:32.826Z,2.85
2022-11-29T10:51:35.591Z,2.72
2022-11-29T10:52:38.569Z,3.42
2022-11-29T10:53:41.334Z,2.97
2022-11-29T10:54:45.928Z,2.45
2022-11-29T10:56:30.260Z,3.55
2022-11-29T10:57:33.174Z,3.10
2022-11-29T10:58:36.664Z,3.28
2022-11-29T10:59:39.436Z,3.30
2022-11-29T11:00:53.846Z,2.90
2022-11-29T11:01:57.950Z,2.95
2022-11-29T11:03:16.981Z,3.47
2022-11-29T11:04:43.044Z,3.17
2022-11-29T11:06:00.666Z,3.42
2022-11-29T11:07:06.418Z,2.95
2022-11-29T11:08:17.754Z,3.42
2022-11-29T11:09:36.880Z,3.30
2022-11-29T11:10:41.664Z,2.90
2022-11-29T11:11:54.237Z,2.90
2022-11-29T11:13:06.964Z,3.40
2022-11-29T11:14:25.126Z,3.80
2022-11-29T11:15:30.489Z,3.20
2022-11-29T11:16:37.371Z,3.42
2022-11-29T11:18:47.899Z,3.50
2022-11-29T11:19:58.416Z,3.35
2022-11-29T11:21:04.528Z,2.90
2022-11-29T11:22:07.448Z,3.72
2022-11-29T11:23:29.360Z,2.85
2022-11-29T11:24:41.252Z,3.70
2022-11-29T11:25:46.028Z,4.50
2022-11-29T11:26:48.816Z,3.58
2022-11-29T11:27:51.673Z,3.20
2022-11-29T11:29:02.117Z,4.13
2022-11-29T11:30:18.415Z,3.92
2022-11-29T11:31:38.312Z,2.92
2022-11-29T11:32:44.339Z,2.78
2022-11-29T11:33:47.052Z,2.65
2022-11-29T11:34:58.940Z,3.30
2022-11-29T11:36:19.722Z,2.78
2022-11-29T11:37:31.343Z,2.67
2022-11-29T11:38:54.830Z,3.33
2022-11-29T11:40:00.425Z,2.80
2022-11-29T11:41:47.943Z,2.70
2022-11-29T11:42:50.892Z,3.33
2022-11-29T11:43:58.700Z,3.90
2022-11-29T11:45:03.384Z,2.50
2022-11-29T11:46:08.072Z,4.47
2022-11-29T11:47:25.706Z,2.78
2022-11-29T11:48:28.960Z,3.00
2022-11-29T11:49:46.959Z,3.28
2022-11-29T11:50:56.747Z,4.22
2022-11-29T11:52:01.358Z,2.60
2022-11-29T11:53:24.901Z,2.90
2022-11-29T11:54:29.054Z,2.83
2022-11-29T11:55:43.943Z,3.67
2022-11-29T11:56:46.654Z,3.10
2022-11-29T11:58:16.402Z,3.22
2022-11-29T11:59:22.499Z,3.28
2022-11-29T12:01:02.806Z,2.72
2022-11-29T12:02:03.101Z,3.47
2022-11-29T12:03:07.505Z,3.30
2022-11-29T12:04:19.317Z,3.67
2022-11-29T12:05:24.752Z,3.17
2022-11-29T12:06:48.470Z,2.67
2022-11-29T12:08:07.749Z,3.15
2022-11-29T12:09:34.296Z,2.90
2022-11-29T12:10:42.449Z,3.60
2022-11-29T12:12:03.837Z,3.00
2022-11-29T12:13:08.893Z,3.00
2022-11-29T12:14:20.610Z,3.42
2022-11-29T12:15:35.681Z,3.45
2022-11-29T12:16:40.886Z,3.63
2022-11-29T12:18:08.939Z,2.60
2022-11-29T12:19:23.826Z,2.92
2022-11-29T12:20:26.972Z,3.80
2022-11-29T12:21:37.526Z,2.55
2022-11-29T12:22:50.276Z,3.50
2022-11-29T12:24:16.708Z,3.05
2022-11-29T12:25:31.116Z,3.05
2022-11-29T12:28:02.159Z,3.38
2022-11-29T12:29:17.071Z,3.38
2022-11-29T12:30:20.422Z,3.30
2022-11-29T12:31:35.526Z,3.60
2022-11-29T12:33:15.085Z,3.38
2022-11-29T12:34:29.130Z,3.00
2022-11-29T12:35:47.171Z,3.28
2022-11-29T12:37:23.131Z,3.05
2022-11-29T12:38:38.760Z,3.03
2022-11-29T12:40:06.558Z,3.30
2022-11-29T12:41:32.883Z,3.38
2022-11-29T12:43:04.328Z,2.65
2022-11-29T12:44:51.114Z,3.25
2022-11-29T12:46:15.730Z,3.25
2022-11-29T12:47:36.802Z,3.83
2022-11-29T12:49:21.553Z,3.63
2022-11-29T12:50:33.195Z,3.10
2022-11-29T12:51:43.548Z,2.72
2022-11-29T12:53:23.947Z,3.70
2022-11-29T12:54:44.074Z,4.05
2022-11-29T12:56:24.809Z,4.10
2022-11-29T12:58:12.424Z,3.20
2022-11-29T12:59:33.603Z,5.10
2022-11-29T13:01:05.381Z,3.70
2022-11-29T13:02:42.922Z,3.80
2022-11-29T13:03:52.643Z,2.85
2022-11-29T13:05:14.032Z,4.20
2022-11-29T13:06:36.828Z,4.65
2022-11-29T13:07:51.917Z,4.18
2022-11-29T13:09:07.807Z,3.38
2022-11-29T13:10:20.470Z,3.33
2022-11-29T13:11:28.597Z,3.05
2022-11-29T13:12:40.350Z,4.45
2022-11-29T13:13:44.475Z,3.75
2022-11-29T13:14:55.654Z,3.15
2022-11-29T13:16:02.436Z,3.78
2022-11-29T13:17:15.723Z,2.88
2022-11-29T13:18:33.008Z,2.90
2022-11-29T13:19:50.686Z,3.22
2022-11-29T13:21:03.762Z,2.38
2022-11-29T13:22:37.885Z,3.10
2022-11-29T13:24:07.790Z,2.53
2022-11-29T13:25:19.136Z,2.95
2022-11-29T13:26:25.081Z,2.85
2022-11-29T13:27:33.542Z,3.75
2022-11-29T13:28:40.271Z,3.17
2022-11-29T13:29:43.581Z,2.88
2022-11-29T13:30:46.721Z,3.45
2022-11-29T13:31:50.259Z,2.95
2022-11-29T13:33:15.626Z,2.95
2022-11-29T13:34:26.949Z,3.20
2022-11-29T13:35:32.370Z,2.95
2022-11-29T13:36:44.291Z,4.10
2022-11-29T13:37:55.879Z,2.85
2022-11-29T13:39:08.987Z,2.90
2022-11-29T13:40:11.764Z,2.70
2022-11-29T13:41:30.935Z,3.38
2022-11-29T13:42:39.789Z,3.33
2022-11-29T13:43:52.029Z,2.90
2022-11-29T13:45:18.088Z,3.38
2022-11-29T13:46:25.003Z,3.30
2022-11-29T13:47:28.151Z,4.38
2022-11-29T13:48:37.907Z,2.33
2022-11-29T13:50:02.856Z,2.92
2022-11-29T13:51:37.750Z,3.65
2022-11-29T13:52:44.617Z,3.15
2022-11-29T13:53:49.584Z,2.85
2022-11-29T13:55:14.666Z,3.55
2022-11-29T13:56:33.892Z,2.83
2022-11-29T13:59:28.484Z,3.90
2022-11-29T14:00:44.190Z,3.25
2022-11-29T14:01:50.652Z,3.40
2022-11-29T14:02:55.282Z,2.90
2022-11-29T14:04:15.095Z,2.60
2022-11-29T14:05:29.450Z,3.22
2022-11-29T14:06:37.630Z,3.53
2022-11-29T14:09:10.369Z,3.70
2022-11-29T14:10:07.370Z,2.72
2022-11-29T14:11:24.646Z,3.28
2022-11-29T14:12:37.477Z,4.43
2022-11-29T14:14:18.550Z,3.08
2022-11-29T14:15:31.688Z,2.75
2022-11-29T14:16:38.589Z,3.75
2022-11-29T14:17:52.008Z,2.78
2022-11-29T14:19:10.189Z,3.58
2022-11-29T14:20:44.399Z,2.72
2022-11-29T14:21:59.314Z,2.92
2022-11-29T14:23:04.763Z,2.95
2022-11-29T14:24:33.465Z,3.22
2022-11-29T14:25:58.992Z,2.88
2022-11-29T14:27:10.654Z,3.47
2022-11-29T14:28:13.322Z,3.25
2022-11-29T14:29:49.706Z,3.03
2022-11-29T14:30:56.306Z,2.88
2022-11-29T14:32:00.503Z,2.85
2022-11-29T14:33:24.928Z,3.13
2022-11-29T14:34:35.378Z,2.50
2022-11-29T14:35:44.601Z,3.85
2022-11-29T14:37:07.641Z,3.15
2022-11-29T14:38:19.841Z,3.83
2022-11-29T14:39:49.791Z,2.97
2022-11-29T14:41:03.399Z,3.58
2022-11-29T14:42:19.016Z,3.03
2022-11-29T14:43:38.109Z,2.78
2022-11-29T14:45:04.957Z,3.13
2022-11-29T14:46:07.815Z,2.67
2022-11-29T14:47:24.419Z,3.70
2022-11-29T14:48:31.075Z,2.97
2022-11-29T14:49:44.699Z,2.42
2022-11-29T14:50:47.472Z,2.75
2022-11-29T14:52:15.629Z,2.60
2022-11-29T14:53:36.407Z,2.95
2022-11-29T14:55:15.251Z,2.30
2022-11-29T14:56:33.734Z,2.63
2022-11-29T14:57:48.466Z,2.83
2022-11-29T14:59:29.919Z,2.13
2022-11-29T15:00:53.162Z,2.40
2022-11-29T15:01:57.073Z,2.30
2022-11-29T15:03:11.106Z,2.90
2022-11-29T15:04:13.933Z,2.45
2022-11-29T15:05:24.760Z,2.60
2022-11-29T15:06:29.507Z,2.50
2022-11-29T15:07:33.624Z,2.22
2022-11-29T15:08:44.724Z,2.63
2022-11-29T15:09:50.876Z,2.55
2022-11-29T15:11:03.205Z,2.50
2022-11-29T15:12:35.912Z,2.78
2022-11-29T15:13:47.227Z,2.67
2022-11-29T15:15:02.078Z,3.13
2022-11-29T15:16:09.830Z,2.63
2022-11-29T15:17:43.157Z,2.90
2022-11-29T15:19:26.408Z,2.80
2022-11-29T15:20:32.419Z,3.28
2022-11-29T15:21:50.183Z,2.80
2022-11-29T15:22:59.627Z,2.85
2022-11-29T15:24:13.831Z,3.13
2022-11-29T15:25:23.081Z,3.22
2022-11-29T15:26:25.871Z,2.83
2022-11-29T15:27:29.187Z,2.42
2022-11-29T15:28:31.867Z,2.55
2022-11-29T15:29:34.629Z,2.53
2022-11-29T15:30:40.267Z,2.78
2022-11-29T15:31:43.708Z,2.95
2022-11-29T15:32:47.052Z,3.35
2022-11-29T15:33:50.935Z,3.33
2022-11-29T15:34:56.183Z,2.25
2022-11-29T15:36:08.772Z,2.28
2022-11-29T15:37:22.633Z,3.22
2022-11-29T15:38:25.886Z,2.55
2022-11-29T15:39:30.321Z,3.22
2022-11-29T15:40:37.346Z,3.20
2022-11-29T15:41:42.002Z,2.42
2022-11-29T15:42:47.632Z,2.97
2022-11-29T15:43:54.140Z,2.22
2022-11-29T15:44:56.791Z,3.03
2022-11-29T15:45:59.858Z,2.20
2022-11-29T15:47:34.750Z,2.45
2022-11-29T15:48:37.448Z,2.90
2022-11-29T15:49:40.184Z,3.08
2022-11-29T15:50:54.712Z,2.35
2022-11-29T15:52:00.706Z,3.85
2022-11-29T15:53:11.176Z,2.78
2022-11-29T15:54:35.211Z,3.20
2022-11-29T15:55:38.443Z,2.63
2022-11-29T15:56:47.213Z,3.20
2022-11-29T15:57:52.977Z,2.42
2022-11-29T15:59:01.258Z,2.50
2022-11-29T16:00:07.610Z,3.15
2022-11-29T16:01:16.701Z,2.65
2022-11-29T16:02:25.022Z,3.70
2022-11-29T16:03:32.657Z,2.85
2022-11-29T16:04:43.553Z,2.95
2022-11-29T16:05:57.122Z,3.08
2022-11-29T16:06:59.985Z,3.00
2022-11-29T16:08:17.907Z,2.80
2022-11-29T16:09:34.276Z,2.80
2022-11-29T16:10:43.818Z,2.50
2022-11-29T16:11:48.463Z,2.83
2022-11-29T16:12:55.511Z,2.80
2022-11-29T16:14:19.390Z,3.67
2022-11-29T16:15:36.175Z,2.60
2022-11-29T16:16:41.163Z,2.53
2022-11-29T16:17:43.866Z,2.35
2022-11-29T16:18:48.586Z,4.35
2022-11-29T16:19:51.867Z,2.72
2022-11-29T16:21:08.230Z,2.70
2022-11-29T16:22:10.930Z,3.10
2022-11-29T16:23:16.936Z,3.08
2022-11-29T16:24:22.302Z,3.22
2022-11-29T16:25:27.237Z,2.85
2022-11-29T16:26:42.039Z,3.20
2022-11-29T16:27:45.983Z,2.92
2022-11-29T16:28:54.082Z,2.53
2022-11-29T16:30:00.096Z,2.60